sensor_id;sensor_type;location;lat;lon;timestamp;P1;durP1;ratioP1;P2;durP2;ratioP2
59263;SDS011;45030;42.720;23.344;2022-11-18T00:02:02;428.55;;;158.07;;
59263;SDS011;45030;42.720;23.344;2022-11-18T00:04:28;449.25;;;157.52;;
59263;SDS011;45030;42.720;23.344;2022-11-18T00:06:53;445.85;;;137.52;;
59263;SDS011;45030;42.720;23.344;2022-11-18T00:09:18;347.52;;;116.95;;
59263;SDS011;45030;42.720;23.344;2022-11-18T00:11:43;439.48;;;136.50;;
59263;SDS011;45030;42.720;23.344;2022-11-18T00:14:27;380.73;;;129.93;;
59263;SDS011;45030;42.720;23.344;2022-11-18T00:16:53;355.27;;;127.32;;
59263;SDS011;45030;42.720;23.344;2022-11-18T00:19:20;323.02;;;118.88;;
59263;SDS011;45030;42.720;23.344;2022-11-18T00:21:45;564.72;;;158.20;;
59263;SDS011;45030;42.720;23.344;2022-11-18T00:24:10;344.92;;;127.05;;
59263;SDS011;45030;42.720;23.344;2022-11-18T00:26:36;413.23;;;134.38;;
59263;SDS011;45030;42.720;23.344;2022-11-18T00:29:01;348.80;;;116.00;;
59263;SDS011;45030;42.720;23.344;2022-11-18T00:31:27;331.17;;;114.88;;
59263;SDS011;45030;42.720;23.344;2022-11-18T00:33:52;444.50;;;133.90;;
59263;SDS011;45030;42.720;23.344;2022-11-18T00:36:17;354.02;;;128.88;;
59263;SDS011;45030;42.720;23.344;2022-11-18T00:38:42;422.48;;;131.10;;
59263;SDS011;45030;42.720;23.344;2022-11-18T00:41:09;414.77;;;134.90;;
59263;SDS011;45030;42.720;23.344;2022-11-18T00:43:34;209.73;;;84.70;;
59263;SDS011;45030;42.720;23.344;2022-11-18T00:45:59;224.90;;;79.40;;
59263;SDS011;45030;42.720;23.344;2022-11-18T00:48:25;320.45;;;75.30;;
59263;SDS011;45030;42.720;23.344;2022-11-18T00:50:51;257.70;;;75.05;;
59263;SDS011;45030;42.720;23.344;2022-11-18T00:53:17;284.05;;;79.30;;
59263;SDS011;45030;42.720;23.344;2022-11-18T00:55:43;281.15;;;85.53;;
59263;SDS011;45030;42.720;23.344;2022-11-18T00:58:08;316.48;;;89.40;;
59263;SDS011;45030;42.720;23.344;2022-11-18T01:00:34;298.42;;;92.90;;
59263;SDS011;45030;42.720;23.344;2022-11-18T01:02:59;154.63;;;73.47;;
59263;SDS011;45030;42.720;23.344;2022-11-18T01:05:24;248.90;;;81.25;;
59263;SDS011;45030;42.720;23.344;2022-11-18T01:07:49;189.23;;;72.47;;
59263;SDS011;45030;42.720;23.344;2022-11-18T01:10:15;282.23;;;80.50;;
59263;SDS011;45030;42.720;23.344;2022-11-18T01:12:40;277.13;;;90.93;;
59263;SDS011;45030;42.720;23.344;2022-11-18T01:15:24;321.33;;;92.47;;
59263;SDS011;45030;42.720;23.344;2022-11-18T01:17:49;282.27;;;91.95;;
59263;SDS011;45030;42.720;23.344;2022-11-18T01:20:14;229.98;;;78.82;;
59263;SDS011;45030;42.720;23.344;2022-11-18T01:22:40;368.85;;;92.00;;
59263;SDS011;45030;42.720;23.344;2022-11-18T01:25:05;363.23;;;78.32;;
59263;SDS011;45030;42.720;23.344;2022-11-18T01:27:30;237.27;;;69.03;;
59263;SDS011;45030;42.720;23.344;2022-11-18T01:29:55;237.27;;;69.85;;
59263;SDS011;45030;42.720;23.344;2022-11-18T01:32:21;228.68;;;54.55;;
59263;SDS011;45030;42.720;23.344;2022-11-18T01:34:46;140.80;;;49.80;;
59263;SDS011;45030;42.720;23.344;2022-11-18T01:37:11;177.55;;;56.45;;
59263;SDS011;45030;42.720;23.344;2022-11-18T01:39:36;162.88;;;53.00;;
59263;SDS011;45030;42.720;23.344;2022-11-18T01:42:02;232.60;;;66.00;;
59263;SDS011;45030;42.720;23.344;2022-11-18T01:47:11;183.35;;;55.25;;
59263;SDS011;45030;42.720;23.344;2022-11-18T01:49:37;239.88;;;66.50;;
59263;SDS011;45030;42.720;23.344;2022-11-18T01:52:02;259.27;;;67.15;;
59263;SDS011;45030;42.720;23.344;2022-11-18T01:54:32;161.70;;;57.72;;
59263;SDS011;45030;42.720;23.344;2022-11-18T01:56:59;190.93;;;54.22;;
59263;SDS011;45030;42.720;23.344;2022-11-18T01:59:26;155.43;;;48.03;;
59263;SDS011;45030;42.720;23.344;2022-11-18T02:01:54;153.38;;;48.28;;
59263;SDS011;45030;42.720;23.344;2022-11-18T02:04:19;77.72;;;36.83;;
59263;SDS011;45030;42.720;23.344;2022-11-18T02:06:45;147.23;;;43.17;;
59263;SDS011;45030;42.720;23.344;2022-11-18T02:09:11;214.93;;;51.60;;
59263;SDS011;45030;42.720;23.344;2022-11-18T02:11:37;119.18;;;42.28;;
59263;SDS011;45030;42.720;23.344;2022-11-18T02:14:15;288.00;;;53.65;;
59263;SDS011;45030;42.720;23.344;2022-11-18T02:34:05;268.17;;;49.30;;
59263;SDS011;45030;42.720;23.344;2022-11-18T02:36:33;236.48;;;45.60;;
59263;SDS011;45030;42.720;23.344;2022-11-18T02:39:04;251.25;;;46.65;;
59263;SDS011;45030;42.720;23.344;2022-11-18T02:41:32;153.90;;;40.83;;
59263;SDS011;45030;42.720;23.344;2022-11-18T02:44:01;110.75;;;39.15;;
59263;SDS011;45030;42.720;23.344;2022-11-18T02:46:28;94.68;;;37.75;;
59263;SDS011;45030;42.720;23.344;2022-11-18T02:48:57;96.90;;;37.80;;
59263;SDS011;45030;42.720;23.344;2022-11-18T02:51:24;133.80;;;42.10;;
59263;SDS011;45030;42.720;23.344;2022-11-18T02:53:50;125.53;;;38.53;;
59263;SDS011;45030;42.720;23.344;2022-11-18T02:56:17;198.77;;;47.22;;
59263;SDS011;45030;42.720;23.344;2022-11-18T02:58:43;185.63;;;43.15;;
59263;SDS011;45030;42.720;23.344;2022-11-18T03:01:19;181.80;;;44.50;;
59263;SDS011;45030;42.720;23.344;2022-11-18T03:03:45;149.55;;;37.08;;
59263;SDS011;45030;42.720;23.344;2022-11-18T03:06:30;125.95;;;38.75;;
59263;SDS011;45030;42.720;23.344;2022-11-18T03:11:29;123.97;;;34.55;;
59263;SDS011;45030;42.720;23.344;2022-11-18T03:16:25;128.85;;;34.85;;
59263;SDS011;45030;42.720;23.344;2022-11-18T03:18:52;61.50;;;28.95;;
59263;SDS011;45030;42.720;23.344;2022-11-18T03:21:21;122.85;;;32.90;;
59263;SDS011;45030;42.720;23.344;2022-11-18T03:23:58;136.25;;;35.75;;
59263;SDS011;45030;42.720;23.344;2022-11-18T03:26:24;127.25;;;33.65;;
59263;SDS011;45030;42.720;23.344;2022-11-18T03:31:28;120.68;;;32.88;;
59263;SDS011;45030;42.720;23.344;2022-11-18T03:33:58;72.28;;;28.17;;
59263;SDS011;45030;42.720;23.344;2022-11-18T03:36:25;152.45;;;36.00;;
59263;SDS011;45030;42.720;23.344;2022-11-18T03:38:53;94.60;;;30.63;;
59263;SDS011;45030;42.720;23.344;2022-11-18T03:41:21;82.70;;;29.05;;
59263;SDS011;45030;42.720;23.344;2022-11-18T03:43:48;190.60;;;36.70;;
59263;SDS011;45030;42.720;23.344;2022-11-18T03:46:19;170.73;;;33.67;;
59263;SDS011;45030;42.720;23.344;2022-11-18T03:48:47;124.75;;;33.10;;
59263;SDS011;45030;42.720;23.344;2022-11-18T03:51:15;107.60;;;33.00;;
59263;SDS011;45030;42.720;23.344;2022-11-18T03:53:46;194.30;;;40.63;;
59263;SDS011;45030;42.720;23.344;2022-11-18T03:56:15;133.20;;;36.40;;
59263;SDS011;45030;42.720;23.344;2022-11-18T04:04:01;164.18;;;34.95;;
59263;SDS011;45030;42.720;23.344;2022-11-18T04:08:54;128.00;;;35.83;;
59263;SDS011;45030;42.720;23.344;2022-11-18T04:11:22;219.93;;;40.47;;
59263;SDS011;45030;42.720;23.344;2022-11-18T04:14:07;192.98;;;42.25;;
59263;SDS011;45030;42.720;23.344;2022-11-18T04:16:38;247.30;;;43.45;;
59263;SDS011;45030;42.720;23.344;2022-11-18T04:19:03;172.55;;;40.97;;
59263;SDS011;45030;42.720;23.344;2022-11-18T04:21:28;206.23;;;42.80;;
59263;SDS011;45030;42.720;23.344;2022-11-18T04:23:53;193.30;;;39.00;;
59263;SDS011;45030;42.720;23.344;2022-11-18T04:26:19;175.88;;;38.47;;
59263;SDS011;45030;42.720;23.344;2022-11-18T04:28:44;256.50;;;45.08;;
59263;SDS011;45030;42.720;23.344;2022-11-18T04:31:09;232.20;;;41.65;;
59263;SDS011;45030;42.720;23.344;2022-11-18T04:33:34;192.63;;;39.17;;
59263;SDS011;45030;42.720;23.344;2022-11-18T04:35:59;238.77;;;40.67;;
59263;SDS011;45030;42.720;23.344;2022-11-18T04:38:25;199.20;;;39.92;;
59263;SDS011;45030;42.720;23.344;2022-11-18T04:40:50;138.02;;;41.83;;
59263;SDS011;45030;42.720;23.344;2022-11-18T04:43:17;170.77;;;43.67;;
59263;SDS011;45030;42.720;23.344;2022-11-18T04:45:46;243.20;;;49.50;;
59263;SDS011;45030;42.720;23.344;2022-11-18T04:48:11;287.08;;;47.80;;
59263;SDS011;45030;42.720;23.344;2022-11-18T04:50:39;123.75;;;37.83;;
59263;SDS011;45030;42.720;23.344;2022-11-18T04:53:06;198.75;;;40.38;;
59263;SDS011;45030;42.720;23.344;2022-11-18T04:55:34;163.30;;;39.97;;
59263;SDS011;45030;42.720;23.344;2022-11-18T04:57:59;251.55;;;47.42;;
59263;SDS011;45030;42.720;23.344;2022-11-18T05:00:25;147.70;;;39.15;;
59263;SDS011;45030;42.720;23.344;2022-11-18T05:02:50;138.55;;;38.50;;
59263;SDS011;45030;42.720;23.344;2022-11-18T05:05:15;178.05;;;39.35;;
59263;SDS011;45030;42.720;23.344;2022-11-18T05:07:40;111.97;;;36.53;;
59263;SDS011;45030;42.720;23.344;2022-11-18T05:10:06;129.68;;;37.50;;
59263;SDS011;45030;42.720;23.344;2022-11-18T05:12:31;108.30;;;36.42;;
59263;SDS011;45030;42.720;23.344;2022-11-18T05:15:16;111.35;;;32.33;;
59263;SDS011;45030;42.720;23.344;2022-11-18T05:17:42;310.80;;;132.32;;
59263;SDS011;45030;42.720;23.344;2022-11-18T05:20:07;620.28;;;285.55;;
59263;SDS011;45030;42.720;23.344;2022-11-18T05:22:32;291.20;;;45.90;;
59263;SDS011;45030;42.720;23.344;2022-11-18T05:24:58;279.77;;;46.83;;
59263;SDS011;45030;42.720;23.344;2022-11-18T05:27:23;183.68;;;37.00;;
59263;SDS011;45030;42.720;23.344;2022-11-18T05:29:48;125.82;;;33.28;;
59263;SDS011;45030;42.720;23.344;2022-11-18T05:32:14;158.82;;;36.92;;
59263;SDS011;45030;42.720;23.344;2022-11-18T05:34:40;119.40;;;35.13;;
59263;SDS011;45030;42.720;23.344;2022-11-18T05:37:05;188.93;;;43.22;;
59263;SDS011;45030;42.720;23.344;2022-11-18T05:39:31;188.80;;;39.20;;
59263;SDS011;45030;42.720;23.344;2022-11-18T05:41:57;129.40;;;40.92;;
59263;SDS011;45030;42.720;23.344;2022-11-18T05:44:41;123.70;;;41.60;;
59263;SDS011;45030;42.720;23.344;2022-11-18T05:47:06;126.20;;;39.00;;
59263;SDS011;45030;42.720;23.344;2022-11-18T05:49:31;190.77;;;84.43;;
59263;SDS011;45030;42.720;23.344;2022-11-18T05:51:56;205.50;;;45.05;;
59263;SDS011;45030;42.720;23.344;2022-11-18T05:54:22;195.80;;;61.53;;
59263;SDS011;45030;42.720;23.344;2022-11-18T05:56:47;203.00;;;48.72;;
59263;SDS011;45030;42.720;23.344;2022-11-18T05:59:12;165.07;;;42.03;;
59263;SDS011;45030;42.720;23.344;2022-11-18T06:06:47;175.65;;;32.78;;
59263;SDS011;45030;42.720;23.344;2022-11-18T06:09:13;94.57;;;28.88;;
59263;SDS011;45030;42.720;23.344;2022-11-18T06:11:40;109.13;;;47.10;;
59263;SDS011;45030;42.720;23.344;2022-11-18T06:14:12;89.72;;;24.00;;
59263;SDS011;45030;42.720;23.344;2022-11-18T06:16:39;93.60;;;23.27;;
59263;SDS011;45030;42.720;23.344;2022-11-18T06:19:08;69.55;;;21.77;;
59263;SDS011;45030;42.720;23.344;2022-11-18T06:21:34;76.43;;;20.77;;
59263;SDS011;45030;42.720;23.344;2022-11-18T06:23:59;95.30;;;33.38;;
59263;SDS011;45030;42.720;23.344;2022-11-18T06:26:26;358.88;;;144.52;;
59263;SDS011;45030;42.720;23.344;2022-11-18T06:28:51;251.55;;;104.22;;
59263;SDS011;45030;42.720;23.344;2022-11-18T06:31:17;122.07;;;33.72;;
59263;SDS011;45030;42.720;23.344;2022-11-18T06:33:42;183.48;;;26.15;;
59263;SDS011;45030;42.720;23.344;2022-11-18T06:36:07;99.80;;;20.10;;
59263;SDS011;45030;42.720;23.344;2022-11-18T06:38:33;69.82;;;16.48;;
59263;SDS011;45030;42.720;23.344;2022-11-18T06:41:01;59.00;;;20.27;;
59263;SDS011;45030;42.720;23.344;2022-11-18T06:43:26;83.55;;;25.17;;
59263;SDS011;45030;42.720;23.344;2022-11-18T06:46:06;92.45;;;18.52;;
59263;SDS011;45030;42.720;23.344;2022-11-18T06:48:50;87.78;;;28.85;;
59263;SDS011;45030;42.720;23.344;2022-11-18T06:51:15;149.02;;;20.58;;
59263;SDS011;45030;42.720;23.344;2022-11-18T06:53:41;62.15;;;18.08;;
59263;SDS011;45030;42.720;23.344;2022-11-18T06:56:07;59.08;;;12.82;;
59263;SDS011;45030;42.720;23.344;2022-11-18T06:58:32;70.13;;;18.92;;
59263;SDS011;45030;42.720;23.344;2022-11-18T07:01:07;80.38;;;20.85;;
59263;SDS011;45030;42.720;23.344;2022-11-18T07:03:32;48.90;;;15.27;;
59263;SDS011;45030;42.720;23.344;2022-11-18T07:05:57;80.13;;;34.47;;
59263;SDS011;45030;42.720;23.344;2022-11-18T07:08:23;55.00;;;15.48;;
59263;SDS011;45030;42.720;23.344;2022-11-18T07:10:51;72.10;;;15.27;;
59263;SDS011;45030;42.720;23.344;2022-11-18T07:13:16;40.40;;;14.63;;
59263;SDS011;45030;42.720;23.344;2022-11-18T07:15:42;41.67;;;10.07;;
59263;SDS011;45030;42.720;23.344;2022-11-18T07:18:07;54.00;;;12.68;;
59263;SDS011;45030;42.720;23.344;2022-11-18T07:20:33;104.18;;;17.92;;
59263;SDS011;45030;42.720;23.344;2022-11-18T07:22:58;47.70;;;12.90;;
59263;SDS011;45030;42.720;23.344;2022-11-18T07:25:23;73.55;;;17.77;;
59263;SDS011;45030;42.720;23.344;2022-11-18T07:27:48;72.93;;;16.08;;
59263;SDS011;45030;42.720;23.344;2022-11-18T07:30:14;49.88;;;12.65;;
59263;SDS011;45030;42.720;23.344;2022-11-18T07:32:39;84.32;;;20.48;;
59263;SDS011;45030;42.720;23.344;2022-11-18T07:35:04;42.03;;;14.00;;
59263;SDS011;45030;42.720;23.344;2022-11-18T07:37:30;78.22;;;21.60;;
59263;SDS011;45030;42.720;23.344;2022-11-18T07:39:55;121.97;;;21.90;;
59263;SDS011;45030;42.720;23.344;2022-11-18T07:42:20;101.07;;;42.15;;
59263;SDS011;45030;42.720;23.344;2022-11-18T07:44:45;62.00;;;22.05;;
59263;SDS011;45030;42.720;23.344;2022-11-18T07:47:11;102.45;;;19.35;;
59263;SDS011;45030;42.720;23.344;2022-11-18T07:49:36;57.35;;;16.95;;
59263;SDS011;45030;42.720;23.344;2022-11-18T07:52:01;79.13;;;18.80;;
59263;SDS011;45030;42.720;23.344;2022-11-18T07:54:26;52.83;;;16.15;;
59263;SDS011;45030;42.720;23.344;2022-11-18T07:56:52;56.85;;;16.02;;
59263;SDS011;45030;42.720;23.344;2022-11-18T07:59:17;100.93;;;18.05;;
59263;SDS011;45030;42.720;23.344;2022-11-18T08:01:42;36.22;;;15.02;;
59263;SDS011;45030;42.720;23.344;2022-11-18T08:04:08;38.88;;;12.50;;
59263;SDS011;45030;42.720;23.344;2022-11-18T08:06:34;70.60;;;16.23;;
59263;SDS011;45030;42.720;23.344;2022-11-18T08:09:00;52.08;;;13.77;;
59263;SDS011;45030;42.720;23.344;2022-11-18T08:11:25;72.88;;;12.52;;
59263;SDS011;45030;42.720;23.344;2022-11-18T08:13:50;73.13;;;12.93;;
59263;SDS011;45030;42.720;23.344;2022-11-18T08:16:22;64.18;;;15.15;;
59263;SDS011;45030;42.720;23.344;2022-11-18T08:18:48;81.25;;;13.30;;
59263;SDS011;45030;42.720;23.344;2022-11-18T08:21:13;34.00;;;10.43;;
59263;SDS011;45030;42.720;23.344;2022-11-18T08:23:39;16.45;;;7.57;;
59263;SDS011;45030;42.720;23.344;2022-11-18T08:26:05;45.20;;;11.93;;
59263;SDS011;45030;42.720;23.344;2022-11-18T08:28:31;81.32;;;13.65;;
59263;SDS011;45030;42.720;23.344;2022-11-18T08:30:56;45.58;;;13.52;;
59263;SDS011;45030;42.720;23.344;2022-11-18T08:33:22;52.28;;;15.05;;
59263;SDS011;45030;42.720;23.344;2022-11-18T08:35:47;69.32;;;18.85;;
59263;SDS011;45030;42.720;23.344;2022-11-18T08:38:12;50.90;;;18.00;;
59263;SDS011;45030;42.720;23.344;2022-11-18T08:40:39;49.53;;;21.08;;
59263;SDS011;45030;42.720;23.344;2022-11-18T08:43:07;75.10;;;23.88;;
59263;SDS011;45030;42.720;23.344;2022-11-18T08:45:32;40.50;;;17.27;;
59263;SDS011;45030;42.720;23.344;2022-11-18T08:47:58;85.95;;;21.02;;
59263;SDS011;45030;42.720;23.344;2022-11-18T08:50:23;76.47;;;23.85;;
59263;SDS011;45030;42.720;23.344;2022-11-18T08:52:48;61.72;;;25.63;;
59263;SDS011;45030;42.720;23.344;2022-11-18T08:55:13;84.18;;;27.42;;
59263;SDS011;45030;42.720;23.344;2022-11-18T08:57:39;69.80;;;25.88;;
59263;SDS011;45030;42.720;23.344;2022-11-18T09:00:04;71.55;;;32.67;;
59263;SDS011;45030;42.720;23.344;2022-11-18T09:02:30;84.38;;;32.53;;
59263;SDS011;45030;42.720;23.344;2022-11-18T09:04:55;57.28;;;25.02;;
59263;SDS011;45030;42.720;23.344;2022-11-18T09:07:20;88.05;;;34.92;;
59263;SDS011;45030;42.720;23.344;2022-11-18T09:09:46;58.83;;;24.17;;
59263;SDS011;45030;42.720;23.344;2022-11-18T09:12:11;61.10;;;24.23;;
59263;SDS011;45030;42.720;23.344;2022-11-18T09:14:42;57.15;;;23.48;;
59263;SDS011;45030;42.720;23.344;2022-11-18T09:17:07;60.25;;;23.67;;
59263;SDS011;45030;42.720;23.344;2022-11-18T09:19:32;104.65;;;31.90;;
59263;SDS011;45030;42.720;23.344;2022-11-18T09:21:58;64.78;;;24.75;;
59263;SDS011;45030;42.720;23.344;2022-11-18T09:24:23;65.07;;;27.17;;
59263;SDS011;45030;42.720;23.344;2022-11-18T09:26:48;67.13;;;27.38;;
59263;SDS011;45030;42.720;23.344;2022-11-18T09:29:13;68.97;;;26.15;;
59263;SDS011;45030;42.720;23.344;2022-11-18T09:31:39;93.20;;;31.67;;
59263;SDS011;45030;42.720;23.344;2022-11-18T09:34:04;127.18;;;33.97;;
59263;SDS011;45030;42.720;23.344;2022-11-18T09:36:29;71.00;;;27.70;;
59263;SDS011;45030;42.720;23.344;2022-11-18T09:38:55;79.82;;;29.13;;
59263;SDS011;45030;42.720;23.344;2022-11-18T09:51:44;97.00;;;30.48;;
59263;SDS011;45030;42.720;23.344;2022-11-18T09:54:12;74.13;;;26.77;;
59263;SDS011;45030;42.720;23.344;2022-11-18T09:56:39;80.78;;;32.13;;
59263;SDS011;45030;42.720;23.344;2022-11-18T09:59:05;92.25;;;29.65;;
59263;SDS011;45030;42.720;23.344;2022-11-18T10:01:31;91.28;;;38.55;;
59263;SDS011;45030;42.720;23.344;2022-11-18T10:03:56;70.63;;;28.58;;
59263;SDS011;45030;42.720;23.344;2022-11-18T10:06:23;103.70;;;38.05;;
59263;SDS011;45030;42.720;23.344;2022-11-18T10:09:02;61.22;;;29.85;;
59263;SDS011;45030;42.720;23.344;2022-11-18T10:11:49;61.13;;;27.55;;
59263;SDS011;45030;42.720;23.344;2022-11-18T10:17:18;58.05;;;27.55;;
59263;SDS011;45030;42.720;23.344;2022-11-18T10:20:07;55.90;;;27.13;;
59263;SDS011;45030;42.720;23.344;2022-11-18T10:22:43;61.03;;;29.98;;
59263;SDS011;45030;42.720;23.344;2022-11-18T10:25:15;54.88;;;27.23;;
59263;SDS011;45030;42.720;23.344;2022-11-18T10:27:41;66.63;;;31.05;;
59263;SDS011;45030;42.720;23.344;2022-11-18T10:30:10;62.15;;;30.77;;
59263;SDS011;45030;42.720;23.344;2022-11-18T10:32:46;60.90;;;28.63;;
59263;SDS011;45030;42.720;23.344;2022-11-18T10:41:02;52.83;;;26.02;;
59263;SDS011;45030;42.720;23.344;2022-11-18T10:46:28;63.97;;;33.03;;
59263;SDS011;45030;42.720;23.344;2022-11-18T10:51:32;50.13;;;26.00;;
59263;SDS011;45030;42.720;23.344;2022-11-18T10:54:07;48.85;;;27.50;;
59263;SDS011;45030;42.720;23.344;2022-11-18T10:56:52;41.50;;;25.42;;
59263;SDS011;45030;42.720;23.344;2022-11-18T11:02:23;49.58;;;27.45;;
59263;SDS011;45030;42.720;23.344;2022-11-18T11:04:41;50.05;;;27.33;;
59263;SDS011;45030;42.720;23.344;2022-11-18T11:07:40;41.65;;;25.00;;
59263;SDS011;45030;42.720;23.344;2022-11-18T11:12:51;34.38;;;21.98;;
59263;SDS011;45030;42.720;23.344;2022-11-18T11:15:26;35.13;;;22.38;;
59263;SDS011;45030;42.720;23.344;2022-11-18T11:17:57;36.55;;;22.17;;
59263;SDS011;45030;42.720;23.344;2022-11-18T11:20:42;31.98;;;20.05;;
59263;SDS011;45030;42.720;23.344;2022-11-18T11:23:11;26.98;;;18.08;;
59263;SDS011;45030;42.720;23.344;2022-11-18T11:36:15;21.95;;;12.98;;
59263;SDS011;45030;42.720;23.344;2022-11-18T11:38:53;19.75;;;12.88;;
59263;SDS011;45030;42.720;23.344;2022-11-18T11:41:21;22.55;;;13.07;;
59263;SDS011;45030;42.720;23.344;2022-11-18T11:43:51;20.55;;;12.70;;
59263;SDS011;45030;42.720;23.344;2022-11-18T11:49:15;23.02;;;14.52;;
59263;SDS011;45030;42.720;23.344;2022-11-18T11:52:26;26.88;;;15.82;;
59263;SDS011;45030;42.720;23.344;2022-11-18T11:57:03;23.05;;;12.32;;
59263;SDS011;45030;42.720;23.344;2022-11-18T12:04:33;21.98;;;15.90;;
59263;SDS011;45030;42.720;23.344;2022-11-18T12:07:01;22.65;;;15.00;;
59263;SDS011;45030;42.720;23.344;2022-11-18T12:09:48;23.98;;;14.82;;
59263;SDS011;45030;42.720;23.344;2022-11-18T12:17:40;31.52;;;17.67;;
59263;SDS011;45030;42.720;23.344;2022-11-18T12:28:10;33.53;;;18.45;;
59263;SDS011;45030;42.720;23.344;2022-11-18T12:30:35;30.73;;;19.33;;
59263;SDS011;45030;42.720;23.344;2022-11-18T12:33:01;33.22;;;18.73;;
59263;SDS011;45030;42.720;23.344;2022-11-18T12:35:26;37.55;;;21.42;;
59263;SDS011;45030;42.720;23.344;2022-11-18T12:42:55;29.00;;;16.90;;
59263;SDS011;45030;42.720;23.344;2022-11-18T12:48:25;35.80;;;21.88;;
59263;SDS011;45030;42.720;23.344;2022-11-18T12:50:50;35.65;;;19.88;;
59263;SDS011;45030;42.720;23.344;2022-11-18T12:53:29;32.00;;;17.58;;
59263;SDS011;45030;42.720;23.344;2022-11-18T12:55:56;37.10;;;20.98;;
59263;SDS011;45030;42.720;23.344;2022-11-18T12:58:22;30.00;;;18.38;;
59263;SDS011;45030;42.720;23.344;2022-11-18T13:00:48;43.65;;;24.73;;
59263;SDS011;45030;42.720;23.344;2022-11-18T13:03:20;41.53;;;22.83;;
59263;SDS011;45030;42.720;23.344;2022-11-18T13:05:46;35.42;;;22.75;;
59263;SDS011;45030;42.720;23.344;2022-11-18T13:08:12;36.92;;;22.30;;
59263;SDS011;45030;42.720;23.344;2022-11-18T13:11:02;43.22;;;28.08;;
59263;SDS011;45030;42.720;23.344;2022-11-18T13:13:41;42.30;;;25.70;;
59263;SDS011;45030;42.720;23.344;2022-11-18T13:16:17;40.22;;;20.67;;
59263;SDS011;45030;42.720;23.344;2022-11-18T13:19:01;32.00;;;18.00;;
59263;SDS011;45030;42.720;23.344;2022-11-18T13:21:27;34.95;;;19.73;;
59263;SDS011;45030;42.720;23.344;2022-11-18T13:24:12;141.38;;;57.65;;
59263;SDS011;45030;42.720;23.344;2022-11-18T13:26:38;59.58;;;34.30;;
59263;SDS011;45030;42.720;23.344;2022-11-18T13:29:14;51.63;;;28.00;;
59263;SDS011;45030;42.720;23.344;2022-11-18T13:34:19;45.10;;;24.83;;
59263;SDS011;45030;42.720;23.344;2022-11-18T13:36:45;41.08;;;25.45;;
59263;SDS011;45030;42.720;23.344;2022-11-18T13:39:16;31.27;;;17.80;;
59263;SDS011;45030;42.720;23.344;2022-11-18T13:41:42;26.40;;;16.58;;
59263;SDS011;45030;42.720;23.344;2022-11-18T13:44:11;28.33;;;16.17;;
59263;SDS011;45030;42.720;23.344;2022-11-18T13:46:39;45.75;;;27.00;;
59263;SDS011;45030;42.720;23.344;2022-11-18T13:49:05;35.35;;;21.70;;
59263;SDS011;45030;42.720;23.344;2022-11-18T13:51:30;39.88;;;24.50;;
59263;SDS011;45030;42.720;23.344;2022-11-18T13:53:56;32.22;;;21.27;;
59263;SDS011;45030;42.720;23.344;2022-11-18T13:56:22;32.90;;;17.27;;
59263;SDS011;45030;42.720;23.344;2022-11-18T14:06:23;33.05;;;19.00;;
59263;SDS011;45030;42.720;23.344;2022-11-18T14:08:48;35.85;;;19.50;;
59263;SDS011;45030;42.720;23.344;2022-11-18T14:11:32;32.10;;;19.67;;
59263;SDS011;45030;42.720;23.344;2022-11-18T14:13:58;28.63;;;18.20;;
59263;SDS011;45030;42.720;23.344;2022-11-18T14:16:29;32.10;;;19.25;;
59263;SDS011;45030;42.720;23.344;2022-11-18T14:18:54;36.92;;;19.58;;
59263;SDS011;45030;42.720;23.344;2022-11-18T14:21:26;46.20;;;29.15;;
59263;SDS011;45030;42.720;23.344;2022-11-18T14:23:52;41.25;;;28.73;;
59263;SDS011;45030;42.720;23.344;2022-11-18T14:26:28;38.88;;;23.55;;
59263;SDS011;45030;42.720;23.344;2022-11-18T14:28:57;31.75;;;18.52;;
59263;SDS011;45030;42.720;23.344;2022-11-18T14:31:29;32.15;;;19.98;;
59263;SDS011;45030;42.720;23.344;2022-11-18T14:39:26;45.97;;;23.60;;
59263;SDS011;45030;42.720;23.344;2022-11-18T14:41:50;17.52;;;10.38;;
59263;SDS011;45030;42.720;23.344;2022-11-18T14:44:16;23.90;;;13.82;;
59263;SDS011;45030;42.720;23.344;2022-11-18T14:46:42;19.25;;;10.05;;
59263;SDS011;45030;42.720;23.344;2022-11-18T14:49:12;26.20;;;13.00;;
59263;SDS011;45030;42.720;23.344;2022-11-18T14:51:37;27.17;;;15.98;;
59263;SDS011;45030;42.720;23.344;2022-11-18T14:54:03;28.88;;;18.42;;
59263;SDS011;45030;42.720;23.344;2022-11-18T14:56:29;31.55;;;19.90;;
59263;SDS011;45030;42.720;23.344;2022-11-18T14:58:55;30.15;;;17.17;;
59263;SDS011;45030;42.720;23.344;2022-11-18T15:01:20;28.65;;;16.30;;
59263;SDS011;45030;42.720;23.344;2022-11-18T15:03:48;26.27;;;11.88;;
59263;SDS011;45030;42.720;23.344;2022-11-18T15:06:14;12.15;;;5.82;;
59263;SDS011;45030;42.720;23.344;2022-11-18T15:08:40;16.38;;;9.25;;
59263;SDS011;45030;42.720;23.344;2022-11-18T15:11:06;18.70;;;10.48;;
59263;SDS011;45030;42.720;23.344;2022-11-18T15:13:32;18.05;;;11.00;;
59263;SDS011;45030;42.720;23.344;2022-11-18T15:15:57;13.30;;;7.68;;
59263;SDS011;45030;42.720;23.344;2022-11-18T15:18:22;13.77;;;7.15;;
59263;SDS011;45030;42.720;23.344;2022-11-18T15:20:49;9.25;;;5.65;;
59263;SDS011;45030;42.720;23.344;2022-11-18T15:23:14;10.80;;;4.88;;
59263;SDS011;45030;42.720;23.344;2022-11-18T15:25:40;23.55;;;11.77;;
59263;SDS011;45030;42.720;23.344;2022-11-18T15:28:05;6.50;;;3.28;;
59263;SDS011;45030;42.720;23.344;2022-11-18T15:30:30;8.73;;;4.50;;
59263;SDS011;45030;42.720;23.344;2022-11-18T15:32:55;4.10;;;2.35;;
59263;SDS011;45030;42.720;23.344;2022-11-18T15:35:21;14.23;;;6.88;;
59263;SDS011;45030;42.720;23.344;2022-11-18T15:37:46;7.20;;;3.47;;
59263;SDS011;45030;42.720;23.344;2022-11-18T15:40:11;10.35;;;5.93;;
59263;SDS011;45030;42.720;23.344;2022-11-18T15:42:37;99.68;;;49.95;;
59263;SDS011;45030;42.720;23.344;2022-11-18T15:45:02;64.03;;;28.35;;
59263;SDS011;45030;42.720;23.344;2022-11-18T15:47:27;87.32;;;49.28;;
59263;SDS011;45030;42.720;23.344;2022-11-18T15:49:53;24.80;;;10.23;;
59263;SDS011;45030;42.720;23.344;2022-11-18T15:52:18;45.55;;;20.90;;
59263;SDS011;45030;42.720;23.344;2022-11-18T15:54:43;15.82;;;8.15;;
59263;SDS011;45030;42.720;23.344;2022-11-18T15:57:08;15.70;;;8.38;;
59263;SDS011;45030;42.720;23.344;2022-11-18T15:59:34;23.20;;;12.98;;
59263;SDS011;45030;42.720;23.344;2022-11-18T16:01:59;53.00;;;33.53;;
59263;SDS011;45030;42.720;23.344;2022-11-18T16:04:24;35.92;;;19.42;;
59263;SDS011;45030;42.720;23.344;2022-11-18T16:06:50;35.00;;;17.27;;
59263;SDS011;45030;42.720;23.344;2022-11-18T16:09:15;31.67;;;18.00;;
59263;SDS011;45030;42.720;23.344;2022-11-18T16:11:41;20.58;;;13.38;;
59263;SDS011;45030;42.720;23.344;2022-11-18T16:14:25;24.05;;;12.48;;
59263;SDS011;45030;42.720;23.344;2022-11-18T16:16:51;20.58;;;12.23;;